Time;durP1;ratioP1;P1;durP2;ratioP2;P2;SDS_P1;SDS_P2;PMS_P1;PMS_P2;Temp;Humidity;BMP_temperature;BMP_pressure;BME280_temperature;BME280_humidity;BME280_pressure;Samples;Min_cycle;Max_cycle;Signal;HPM_P1;HPM_P2
2022/12/14 00:01:40;;;;;;;46.63;22.93;;;;;;;;;;5055465;28;20200;-45
2022/12/14 00:04:10;;;;;;;45.83;21.37;;;;;;;;;;5055410;28;20266;-45
2022/12/14 00:06:37;;;;;;;46.33;23.20;;;;;;;;;;5055325;28;20208;-45
2022/12/14 00:09:04;;;;;;;44.33;23.03;;;;;;;;;;5055182;28;20199;-45
2022/12/14 00:11:33;;;;;;;43.80;22.07;;;;;;;;;;5054670;28;20200;-45
2022/12/14 00:14:01;;;;;;;47.47;23.60;;;;;;;;;;5055263;28;20235;-45
2022/12/14 00:16:32;;;;;;;47.87;23.70;;;;;;;;;;5054790;28;20210;-46
2022/12/14 00:19:00;;;;;;;47.13;23.30;;;;;;;;;;5055511;28;20236;-45
2022/12/14 00:21:27;;;;;;;51.03;24.77;;;;;;;;;;5054983;28;20196;-44
2022/12/14 00:23:58;;;;;;;42.03;21.40;;;;;;;;;;5054937;28;20218;-45
2022/12/14 00:26:28;;;;;;;44.57;23.30;;;;;;;;;;5055271;28;20211;-45
2022/12/14 00:28:57;;;;;;;44.73;22.63;;;;;;;;;;5055555;28;20192;-45
2022/12/14 00:31:25;;;;;;;50.03;24.13;;;;;;;;;;5054850;28;20203;-45
2022/12/14 00:33:52;;;;;;;45.87;24.50;;;;;;;;;;5054966;28;20230;-45
2022/12/14 00:36:19;;;;;;;46.67;24.37;;;;;;;;;;5054738;28;20204;-45
2022/12/14 00:38:46;;;;;;;46.67;24.27;;;;;;;;;;5054666;28;20196;-45
2022/12/14 00:41:13;;;;;;;51.10;24.97;;;;;;;;;;5054833;28;20203;-46
2022/12/14 00:43:41;;;;;;;49.30;24.90;;;;;;;;;;5054524;28;20208;-45
2022/12/14 00:46:08;;;;;;;48.40;24.60;;;;;;;;;;5054542;28;20646;-45
2022/12/14 00:48:35;;;;;;;56.93;26.50;;;;;;;;;;5054580;28;20290;-45
2022/12/14 00:51:02;;;;;;;49.33;23.93;;;;;;;;;;5054417;28;20708;-46
2022/12/14 00:53:29;;;;;;;48.33;24.10;;;;;;;;;;5054873;28;20260;-45
2022/12/14 00:56:04;;;;;;;50.70;24.80;;;;;;;;;;5054530;28;20615;-46
2022/12/14 00:58:30;;;;;;;47.37;24.70;;;;;;;;;;5054650;28;20249;-45
2022/12/14 01:01:03;;;;;;;46.30;23.77;;;;;;;;;;5054368;28;20223;-45
2022/12/14 01:03:30;;;;;;;46.33;24.47;;;;;;;;;;5054683;28;20271;-46
2022/12/14 01:05:59;;;;;;;48.03;24.10;;;;;;;;;;5054694;28;20192;-45
2022/12/14 01:08:33;;;;;;;52.80;25.67;;;;;;;;;;5054582;28;20196;-46
2022/12/14 01:11:06;;;;;;;49.03;24.33;;;;;;;;;;5054686;28;20203;-46
2022/12/14 01:13:34;;;;;;;49.20;24.50;;;;;;;;;;5054429;28;20247;-46
2022/12/14 01:16:06;;;;;;;48.33;24.27;;;;;;;;;;5054208;28;20234;-45
2022/12/14 01:18:34;;;;;;;53.50;23.90;;;;;;;;;;5054178;28;20319;-45
2022/12/14 01:21:21;;;;;;;53.50;25.10;;;;;;;;;;5054732;28;20199;-45
2022/12/14 01:23:53;;;;;;;43.20;23.37;;;;;;;;;;5057094;28;20202;-46
2022/12/14 01:26:22;;;;;;;47.43;23.73;;;;;;;;;;5058285;28;20286;-45
2022/12/14 01:28:51;;;;;;;49.70;25.13;;;;;;;;;;5058121;28;20694;-46
2022/12/14 01:31:21;;;;;;;48.37;25.30;;;;;;;;;;5058250;28;20204;-45
2022/12/14 01:33:48;;;;;;;52.10;25.87;;;;;;;;;;5058310;28;20281;-45
2022/12/14 01:36:18;;;;;;;50.70;25.17;;;;;;;;;;5058020;28;20545;-45
2022/12/14 01:38:46;;;;;;;48.90;24.37;;;;;;;;;;5057055;28;20195;-45
2022/12/14 01:41:39;;;;;;;48.37;25.57;;;;;;;;;;5057971;28;20238;-45
2022/12/14 01:44:09;;;;;;;50.50;24.20;;;;;;;;;;5051561;28;20239;-45
2022/12/14 01:46:54;;;;;;;51.07;25.17;;;;;;;;;;5058346;28;20212;-46
2022/12/14 01:49:32;;;;;;;48.10;24.33;;;;;;;;;;5057756;28;20254;-45
2022/12/14 01:52:08;;;;;;;46.83;23.50;;;;;;;;;;5058380;28;20203;-45
2022/12/14 01:54:40;;;;;;;51.37;25.00;;;;;;;;;;5058100;28;20261;-45
2022/12/14 01:57:16;;;;;;;46.33;23.93;;;;;;;;;;5057737;28;20214;-46
2022/12/14 01:59:44;;;;;;;48.00;24.10;;;;;;;;;;5056878;28;20288;-45
2022/12/14 02:02:13;;;;;;;51.10;25.33;;;;;;;;;;5056929;28;20545;-45
2022/12/14 02:04:44;;;;;;;48.33;24.63;;;;;;;;;;5057045;28;20219;-45
2022/12/14 02:07:12;;;;;;;52.13;25.13;;;;;;;;;;5056787;28;20204;-45
2022/12/14 02:09:40;;;;;;;53.13;26.77;;;;;;;;;;5056571;28;20669;-46
2022/12/14 02:12:24;;;;;;;52.07;25.70;;;;;;;;;;5056363;28;20223;-45
2022/12/14 02:14:52;;;;;;;49.80;23.20;;;;;;;;;;5056482;28;20206;-46
2022/12/14 02:17:20;;;;;;;40.47;21.40;;;;;;;;;;5056382;28;20378;-45
2022/12/14 02:19:48;;;;;;;60.90;26.73;;;;;;;;;;5053293;28;20239;-44
2022/12/14 02:22:53;;;;;;;49.77;25.53;;;;;;;;;;5036868;28;20231;-45
2022/12/14 02:25:39;;;;;;;46.03;24.43;;;;;;;;;;5024458;28;20224;-46
2022/12/14 02:28:25;;;;;;;48.60;25.43;;;;;;;;;;5037357;28;20200;-45
2022/12/14 02:31:28;;;;;;;54.73;26.50;;;;;;;;;;5036941;28;20196;-45
2022/12/14 02:34:12;;;;;;;48.57;24.37;;;;;;;;;;4976379;28;20226;-45
2022/12/14 02:36:56;;;;;;;56.40;26.27;;;;;;;;;;5030631;28;20270;-45
2022/12/14 02:39:53;;;;;;;53.70;25.97;;;;;;;;;;5036036;28;20189;-45
2022/12/14 02:42:38;;;;;;;51.23;26.10;;;;;;;;;;5036865;28;20525;-45
2022/12/14 02:45:31;;;;;;;54.60;25.57;;;;;;;;;;5036074;28;20518;-45
2022/12/14 02:48:06;;;;;;;47.83;24.63;;;;;;;;;;5034406;28;20612;-44
2022/12/14 02:50:45;;;;;;;50.77;25.13;;;;;;;;;;5036621;28;20215;-45
2022/12/14 02:53:24;;;;;;;49.70;25.30;;;;;;;;;;5035782;28;20224;-45
2022/12/14 02:55:53;;;;;;;42.13;21.97;;;;;;;;;;5035786;28;20274;-45
2022/12/14 02:58:40;;;;;;;50.30;24.87;;;;;;;;;;5035860;28;20224;-45
2022/12/14 03:01:10;;;;;;;38.80;21.43;;;;;;;;;;5035838;28;20208;-45
2022/12/14 03:03:38;;;;;;;48.67;25.30;;;;;;;;;;5035840;28;20209;-46
2022/12/14 03:06:13;;;;;;;51.63;25.30;;;;;;;;;;5036420;28;20621;-45
2022/12/14 03:08:42;;;;;;;53.97;24.20;;;;;;;;;;5035805;28;20295;-45
2022/12/14 03:11:14;;;;;;;53.93;26.63;;;;;;;;;;5035412;28;20211;-45
2022/12/14 03:13:53;;;;;;;51.60;25.20;;;;;;;;;;5035529;28;20228;-45
2022/12/14 03:16:27;;;;;;;54.23;26.37;;;;;;;;;;5035644;28;20188;-44
2022/12/14 03:19:00;;;;;;;51.90;26.50;;;;;;;;;;5035196;28;20267;-45
2022/12/14 03:21:33;;;;;;;51.27;26.10;;;;;;;;;;5035656;28;20268;-45
2022/12/14 03:24:04;;;;;;;51.33;25.23;;;;;;;;;;5035581;28;20200;-45
2022/12/14 03:27:11;;;;;;;50.50;25.43;;;;;;;;;;5036119;28;20219;-45
2022/12/14 03:29:43;;;;;;;52.97;27.17;;;;;;;;;;5035541;28;20199;-46
2022/12/14 03:32:17;;;;;;;52.10;25.93;;;;;;;;;;5035040;28;20712;-46
2022/12/14 03:34:56;;;;;;;49.57;24.37;;;;;;;;;;5035092;28;20234;-44
2022/12/14 03:37:33;;;;;;;51.87;26.13;;;;;;;;;;5035772;28;20695;-46
2022/12/14 03:40:00;;;;;;;56.87;25.47;;;;;;;;;;5035731;28;20239;-44
2022/12/14 03:42:55;;;;;;;53.33;26.40;;;;;;;;;;5035085;28;20219;-45
2022/12/14 03:45:22;;;;;;;77.30;36.87;;;;;;;;;;5035522;28;20200;-44
2022/12/14 03:48:02;;;;;;;66.07;34.20;;;;;;;;;;5034703;28;20213;-45
2022/12/14 03:50:40;;;;;;;67.77;36.90;;;;;;;;;;5036121;28;20196;-45
2022/12/14 03:53:29;;;;;;;63.17;35.70;;;;;;;;;;5034804;28;20305;-45
2022/12/14 03:56:16;;;;;;;59.60;29.93;;;;;;;;;;5034968;28;20200;-45
2022/12/14 03:59:08;;;;;;;53.40;26.80;;;;;;;;;;5035557;28;20223;-44
2022/12/14 04:01:38;;;;;;;59.10;27.07;;;;;;;;;;5035368;28;20232;-46
2022/12/14 04:04:16;;;;;;;55.30;26.73;;;;;;;;;;5035354;28;20200;-45
2022/12/14 04:06:55;;;;;;;52.83;26.93;;;;;;;;;;5035549;28;20219;-45
2022/12/14 04:09:28;;;;;;;50.80;27.13;;;;;;;;;;5035260;28;20635;-44
2022/12/14 04:21:00;;;;;;;58.83;28.30;;;;;;;;;;5034695;28;20262;-45
2022/12/14 04:26:24;;;;;;;102.10;48.90;;;;;;;;;;5034653;28;20518;-44
2022/12/14 04:31:54;;;;;;;236.17;84.57;;;;;;;;;;5034265;28;20212;-46
2022/12/14 04:34:22;;;;;;;65.50;30.60;;;;;;;;;;5034730;28;20307;-45
2022/12/14 04:36:58;;;;;;;73.07;33.43;;;;;;;;;;5033710;28;20624;-45
2022/12/14 04:39:34;;;;;;;70.23;40.70;;;;;;;;;;5035149;28;20192;-44
2022/12/14 04:42:03;;;;;;;68.17;35.43;;;;;;;;;;5034776;28;20188;-45
2022/12/14 04:44:38;;;;;;;74.37;37.43;;;;;;;;;;5033174;28;20295;-46
2022/12/14 04:47:07;;;;;;;76.30;40.50;;;;;;;;;;5033824;28;20278;-46
2022/12/14 04:49:41;;;;;;;73.13;35.50;;;;;;;;;;5032167;28;20225;-46
2022/12/14 04:52:20;;;;;;;95.53;44.43;;;;;;;;;;5034143;28;20203;-45
2022/12/14 04:55:16;;;;;;;72.10;33.97;;;;;;;;;;5033538;28;20244;-45
2022/12/14 04:58:01;;;;;;;83.47;37.77;;;;;;;;;;5035094;28;20216;-45
2022/12/14 05:00:34;;;;;;;103.27;38.47;;;;;;;;;;5038027;28;20204;-44
2022/12/14 05:03:12;;;;;;;101.47;39.37;;;;;;;;;;5037891;28;20204;-45
2022/12/14 05:05:58;;;;;;;109.13;40.83;;;;;;;;;;5037712;28;20200;-44
2022/12/14 05:08:34;;;;;;;306.33;115.97;;;;;;;;;;5050646;28;20228;-45
2022/12/14 05:11:20;;;;;;;133.47;80.47;;;;;;;;;;5057922;28;20224;-46
2022/12/14 05:14:30;;;;;;;81.20;38.63;;;;;;;;;;5049602;28;20243;-46
2022/12/14 05:16:57;;;;;;;67.23;31.10;;;;;;;;;;5016564;28;20232;-50
2022/12/14 05:19:30;;;;;;;73.13;32.10;;;;;;;;;;5044708;28;20223;-46
2022/12/14 05:22:00;;;;;;;68.23;31.00;;;;;;;;;;5040752;28;20224;-44
2022/12/14 05:24:27;;;;;;;63.03;29.20;;;;;;;;;;5037595;28;20255;-46
2022/12/14 05:26:54;;;;;;;66.70;29.30;;;;;;;;;;5037508;28;20221;-47
2022/12/14 05:29:21;;;;;;;62.77;30.60;;;;;;;;;;5056869;28;20590;-45
2022/12/14 05:31:50;;;;;;;65.13;30.20;;;;;;;;;;5057272;28;20228;-46
2022/12/14 05:34:17;;;;;;;69.77;30.57;;;;;;;;;;5056389;28;20244;-44
2022/12/14 05:36:44;;;;;;;62.70;29.27;;;;;;;;;;5055826;28;20302;-45
2022/12/14 05:39:12;;;;;;;72.93;33.10;;;;;;;;;;5056844;28;20582;-45
2022/12/14 05:41:38;;;;;;;88.53;37.20;;;;;;;;;;5056127;28;20263;-51
2022/12/14 05:44:06;;;;;;;97.37;37.63;;;;;;;;;;5056997;28;20289;-45
2022/12/14 05:46:33;;;;;;;96.70;38.80;;;;;;;;;;5055957;28;20306;-48
2022/12/14 05:49:01;;;;;;;82.77;35.47;;;;;;;;;;5056750;28;20223;-44
2022/12/14 05:51:27;;;;;;;75.30;31.17;;;;;;;;;;5056868;28;20224;-45
2022/12/14 05:53:57;;;;;;;70.90;33.10;;;;;;;;;;5056360;28;20265;-44
2022/12/14 05:56:24;;;;;;;76.90;35.27;;;;;;;;;;5056935;28;20259;-44
2022/12/14 05:58:51;;;;;;;62.50;29.10;;;;;;;;;;5056605;28;20239;-45
2022/12/14 06:01:18;;;;;;;61.10;26.80;;;;;;;;;;5056740;28;20611;-45
2022/12/14 06:03:46;;;;;;;56.53;27.27;;;;;;;;;;5056563;28;20232;-45
2022/12/14 06:06:13;;;;;;;60.53;26.87;;;;;;;;;;5056258;28;20224;-45
2022/12/14 06:08:43;;;;;;;75.60;29.47;;;;;;;;;;5055858;28;20220;-47
2022/12/14 06:11:15;;;;;;;67.27;29.53;;;;;;;;;;5056927;28;20289;-45
2022/12/14 06:13:43;;;;;;;72.00;31.13;;;;;;;;;;5056397;28;20243;-44
2022/12/14 06:16:11;;;;;;;60.17;28.57;;;;;;;;;;5057469;28;20516;-45
2022/12/14 06:18:44;;;;;;;59.73;27.00;;;;;;;;;;5057040;28;20567;-44
2022/12/14 06:21:12;;;;;;;58.87;28.20;;;;;;;;;;5057821;28;20201;-45
2022/12/14 06:23:40;;;;;;;59.23;25.97;;;;;;;;;;5057398;28;20219;-44
2022/12/14 06:26:11;;;;;;;61.13;28.30;;;;;;;;;;5057068;28;20208;-45
2022/12/14 06:28:38;;;;;;;63.27;28.93;;;;;;;;;;5057043;28;20692;-44
2022/12/14 06:31:05;;;;;;;61.70;28.47;;;;;;;;;;5058060;28;20207;-44
2022/12/14 06:33:34;;;;;;;70.60;29.40;;;;;;;;;;5057335;28;20200;-44
2022/12/14 06:36:01;;;;;;;73.87;33.03;;;;;;;;;;5057124;28;20651;-44
2022/12/14 06:38:29;;;;;;;77.47;34.10;;;;;;;;;;5037617;28;20201;-44
2022/12/14 06:40:56;;;;;;;74.10;33.10;;;;;;;;;;5037130;28;20205;-44
2022/12/14 06:43:24;;;;;;;69.63;31.83;;;;;;;;;;5036752;28;20200;-44
2022/12/14 06:45:52;;;;;;;72.90;31.57;;;;;;;;;;5036918;28;20204;-44
2022/12/14 06:48:20;;;;;;;67.37;31.30;;;;;;;;;;5036825;28;20209;-44
2022/12/14 06:50:46;;;;;;;63.03;30.33;;;;;;;;;;5037215;28;20227;-44
2022/12/14 06:53:14;;;;;;;62.93;28.80;;;;;;;;;;5036748;28;20209;-44
2022/12/14 06:55:41;;;;;;;57.47;29.67;;;;;;;;;;5036611;28;20252;-44
2022/12/14 06:58:12;;;;;;;78.37;32.23;;;;;;;;;;5036537;28;20658;-44
2022/12/14 07:00:39;;;;;;;89.40;34.20;;;;;;;;;;5036587;28;20731;-45
2022/12/14 07:03:08;;;;;;;86.67;36.17;;;;;;;;;;5036590;28;20196;-44
2022/12/14 07:05:35;;;;;;;88.33;37.13;;;;;;;;;;5035535;28;20292;-44
2022/12/14 07:08:02;;;;;;;64.77;28.13;;;;;;;;;;5036347;28;20224;-44
2022/12/14 07:10:29;;;;;;;64.70;26.83;;;;;;;;;;5036664;28;20307;-44
2022/12/14 07:12:56;;;;;;;65.67;27.93;;;;;;;;;;5036531;28;20201;-44
2022/12/14 07:15:23;;;;;;;63.53;28.87;;;;;;;;;;5036400;28;20244;-46
2022/12/14 07:17:50;;;;;;;67.67;28.97;;;;;;;;;;5036552;28;20247;-46
2022/12/14 07:20:17;;;;;;;64.43;27.83;;;;;;;;;;5035571;28;20232;-46
2022/12/14 07:22:44;;;;;;;66.67;28.53;;;;;;;;;;5035649;28;20207;-44
2022/12/14 07:25:15;;;;;;;64.90;29.57;;;;;;;;;;5036065;28;20705;-44
2022/12/14 07:27:42;;;;;;;72.60;30.47;;;;;;;;;;5036013;28;20205;-44
2022/12/14 07:30:10;;;;;;;74.43;30.50;;;;;;;;;;5035907;28;20200;-44
2022/12/14 07:32:37;;;;;;;64.87;30.33;;;;;;;;;;5036205;28;20211;-45
2022/12/14 07:35:04;;;;;;;76.10;31.37;;;;;;;;;;5035766;28;20220;-45
2022/12/14 07:37:32;;;;;;;64.60;27.93;;;;;;;;;;5034654;28;20258;-47
2022/12/14 07:39:58;;;;;;;62.63;27.80;;;;;;;;;;5044835;28;20618;-46
2022/12/14 07:42:26;;;;;;;69.83;29.43;;;;;;;;;;5055734;28;20212;-47
2022/12/14 07:44:52;;;;;;;59.03;26.47;;;;;;;;;;5055594;28;20269;-46
2022/12/14 07:47:20;;;;;;;67.43;32.23;;;;;;;;;;5045292;28;20235;-52
2022/12/14 07:49:47;;;;;;;87.97;33.00;;;;;;;;;;5049778;28;20220;-46
2022/12/14 07:52:14;;;;;;;87.23;31.67;;;;;;;;;;5046403;28;20293;-47
2022/12/14 07:54:41;;;;;;;74.83;27.67;;;;;;;;;;5041444;28;20243;-46
2022/12/14 07:57:08;;;;;;;73.13;28.10;;;;;;;;;;5054004;28;20247;-46
2022/12/14 07:59:35;;;;;;;75.67;33.47;;;;;;;;;;5053955;28;20227;-46
2022/12/14 08:02:02;;;;;;;175.93;51.80;;;;;;;;;;5052983;28;20231;-48
2022/12/14 08:04:29;;;;;;;140.17;40.37;;;;;;;;;;5050299;28;20311;-45
2022/12/14 08:06:56;;;;;;;59.70;26.50;;;;;;;;;;5034138;28;20220;-47
2022/12/14 08:09:26;;;;;;;62.53;25.30;;;;;;;;;;5037391;28;20220;-46
2022/12/14 08:11:53;;;;;;;65.93;28.23;;;;;;;;;;5053103;28;20220;-45
2022/12/14 08:14:20;;;;;;;80.17;34.27;;;;;;;;;;5053303;28;20563;-46
2022/12/14 08:16:48;;;;;;;123.57;54.97;;;;;;;;;;5051677;28;20224;-47
2022/12/14 08:19:16;;;;;;;222.53;56.10;;;;;;;;;;5053830;28;20571;-46
2022/12/14 08:21:44;;;;;;;112.83;40.53;;;;;;;;;;5053956;28;20622;-47
2022/12/14 08:24:12;;;;;;;152.77;54.10;;;;;;;;;;5053399;28;20286;-46
2022/12/14 08:26:39;;;;;;;193.37;67.47;;;;;;;;;;5033704;28;20679;-46
2022/12/14 08:29:06;;;;;;;136.93;45.03;;;;;;;;;;5034014;28;20263;-47
2022/12/14 08:31:34;;;;;;;89.60;35.13;;;;;;;;;;5034656;28;20196;-46
2022/12/14 08:34:01;;;;;;;91.37;37.20;;;;;;;;;;5034652;28;20707;-48
2022/12/14 08:36:31;;;;;;;115.67;39.43;;;;;;;;;;5034790;28;20201;-46
2022/12/14 08:39:05;;;;;;;109.57;40.13;;;;;;;;;;5034975;28;20224;-48
2022/12/14 08:41:33;;;;;;;86.23;34.57;;;;;;;;;;5046893;28;20250;-47
2022/12/14 08:44:02;;;;;;;78.83;36.03;;;;;;;;;;5054282;28;20294;-47
2022/12/14 08:46:31;;;;;;;94.30;37.97;;;;;;;;;;5054111;28;20211;-46
2022/12/14 08:48:58;;;;;;;79.67;31.97;;;;;;;;;;5054475;28;20204;-46
2022/12/14 08:51:26;;;;;;;87.93;38.57;;;;;;;;;;5037315;28;20215;-46
2022/12/14 08:53:54;;;;;;;72.07;32.53;;;;;;;;;;5034734;28;20295;-47
2022/12/14 08:56:23;;;;;;;70.87;30.63;;;;;;;;;;5034226;28;20573;-46
2022/12/14 08:58:51;;;;;;;59.63;27.33;;;;;;;;;;5034226;28;20711;-48
2022/12/14 09:01:23;;;;;;;62.67;30.50;;;;;;;;;;5048427;28;20213;-46
2022/12/14 09:04:01;;;;;;;79.30;30.27;;;;;;;;;;5049581;28;20200;-46
2022/12/14 09:06:29;;;;;;;129.60;39.57;;;;;;;;;;5045649;28;20196;-44
2022/12/14 09:08:56;;;;;;;132.43;41.43;;;;;;;;;;5051160;28;20248;-47
2022/12/14 09:11:24;;;;;;;99.57;38.03;;;;;;;;;;5054113;28;20214;-46
2022/12/14 09:13:54;;;;;;;60.30;28.63;;;;;;;;;;5054867;28;20215;-47
2022/12/14 09:16:22;;;;;;;71.83;28.83;;;;;;;;;;5049221;28;20674;-45
2022/12/14 09:18:49;;;;;;;60.87;28.03;;;;;;;;;;5050570;28;20236;-48
2022/12/14 09:21:16;;;;;;;63.33;27.73;;;;;;;;;;5039079;28;20220;-45
2022/12/14 09:23:44;;;;;;;61.83;26.57;;;;;;;;;;5054347;28;20262;-45
2022/12/14 09:26:16;;;;;;;85.63;33.73;;;;;;;;;;5053879;28;20211;-51
2022/12/14 09:28:51;;;;;;;87.13;31.50;;;;;;;;;;5050182;28;20203;-46
2022/12/14 09:31:21;;;;;;;91.60;36.43;;;;;;;;;;5042487;28;20199;-45
2022/12/14 09:33:48;;;;;;;108.67;39.27;;;;;;;;;;5054395;28;20199;-45
2022/12/14 09:36:20;;;;;;;294.80;82.97;;;;;;;;;;5053638;28;20243;-45
2022/12/14 09:38:54;;;;;;;92.77;33.83;;;;;;;;;;5049005;28;20726;-47
2022/12/14 09:41:33;;;;;;;64.50;26.50;;;;;;;;;;5045048;28;20217;-47
2022/12/14 09:44:25;;;;;;;78.40;30.87;;;;;;;;;;5051937;28;20311;-46
2022/12/14 09:47:05;;;;;;;83.97;30.13;;;;;;;;;;5053758;28;20618;-45
2022/12/14 09:49:57;;;;;;;49.73;22.20;;;;;;;;;;5046163;28;20196;-45
2022/12/14 09:52:40;;;;;;;48.17;23.37;;;;;;;;;;5050984;28;20890;-52
2022/12/14 09:55:36;;;;;;;59.63;30.57;;;;;;;;;;5056437;28;20243;-50
2022/12/14 09:58:21;;;;;;;115.53;33.10;;;;;;;;;;5055999;28;20243;-45
2022/12/14 10:01:45;;;;;;;77.77;31.00;;;;;;;;;;5051930;28;20227;-44
2022/12/14 10:04:45;;;;;;;55.40;21.17;;;;;;;;;;5045780;28;20293;-46
2022/12/14 10:07:32;;;;;;;49.20;21.23;;;;;;;;;;5046904;28;20557;-45
2022/12/14 10:10:04;;;;;;;100.07;35.07;;;;;;;;;;5044261;28;20223;-46
2022/12/14 10:12:57;;;;;;;185.33;64.13;;;;;;;;;;5055487;28;20314;-51
2022/12/14 10:15:32;;;;;;;102.90;40.33;;;;;;;;;;5055891;28;20234;-52
2022/12/14 10:18:18;;;;;;;88.33;35.87;;;;;;;;;;5055317;28;20645;-46
2022/12/14 10:21:18;;;;;;;127.60;47.60;;;;;;;;;;5054520;28;20230;-45
2022/12/14 10:23:56;;;;;;;149.20;52.07;;;;;;;;;;5055991;28;20219;-46
2022/12/14 10:26:31;;;;;;;115.30;43.37;;;;;;;;;;5055413;28;20215;-44
2022/12/14 10:29:20;;;;;;;102.70;37.73;;;;;;;;;;5054380;28;20251;-46
2022/12/14 10:31:58;;;;;;;83.50;33.87;;;;;;;;;;5047184;28;20690;-51
2022/12/14 10:34:28;;;;;;;87.07;38.60;;;;;;;;;;5053087;28;20297;-48
2022/12/14 10:37:11;;;;;;;59.17;27.47;;;;;;;;;;5051665;28;20227;-46
2022/12/14 10:39:54;;;;;;;62.37;28.30;;;;;;;;;;5054515;28;20674;-46
2022/12/14 10:42:27;;;;;;;74.47;30.53;;;;;;;;;;5055205;28;20228;-46
2022/12/14 10:45:00;;;;;;;94.40;36.30;;;;;;;;;;5050292;28;20196;-47
2022/12/14 10:47:51;;;;;;;122.43;39.37;;;;;;;;;;5055889;28;20254;-47
2022/12/14 10:50:26;;;;;;;86.30;33.17;;;;;;;;;;5047790;28;20193;-47
2022/12/14 10:52:53;;;;;;;74.27;29.97;;;;;;;;;;5034542;28;20192;-49
2022/12/14 10:55:32;;;;;;;65.70;28.83;;;;;;;;;;5034128;28;20287;-46
2022/12/14 10:58:00;;;;;;;62.03;27.77;;;;;;;;;;5035755;28;20270;-46
2022/12/14 11:00:27;;;;;;;87.43;35.63;;;;;;;;;;5036385;28;20189;-45
2022/12/14 11:02:56;;;;;;;85.27;33.37;;;;;;;;;;5036115;28;20208;-47
2022/12/14 11:05:36;;;;;;;89.00;34.13;;;;;;;;;;5034742;28;20279;-45
2022/12/14 11:08:08;;;;;;;99.37;39.17;;;;;;;;;;5033445;28;20197;-46
2022/12/14 11:10:38;;;;;;;138.90;53.57;;;;;;;;;;5034664;28;20264;-48
2022/12/14 11:13:11;;;;;;;117.17;43.97;;;;;;;;;;5035839;28;20193;-46
2022/12/14 11:15:41;;;;;;;96.07;37.77;;;;;;;;;;5036384;28;20216;-46
2022/12/14 11:18:29;;;;;;;105.77;41.33;;;;;;;;;;5052055;28;20231;-48
2022/12/14 11:21:00;;;;;;;68.43;31.90;;;;;;;;;;5054974;28;20269;-47
2022/12/14 11:23:38;;;;;;;82.47;36.53;;;;;;;;;;5055103;28;20261;-46
2022/12/14 11:26:16;;;;;;;61.83;28.53;;;;;;;;;;5042532;28;20521;-46
2022/12/14 11:28:46;;;;;;;72.00;32.50;;;;;;;;;;5035078;28;20494;-47
2022/12/14 11:31:18;;;;;;;70.63;31.27;;;;;;;;;;5035767;28;20616;-46
2022/12/14 11:33:49;;;;;;;70.53;29.23;;;;;;;;;;5054174;28;20199;-46
2022/12/14 11:36:38;;;;;;;58.60;26.00;;;;;;;;;;5054169;28;20673;-47
2022/12/14 11:39:12;;;;;;;47.60;20.67;;;;;;;;;;5054389;28;20196;-47
2022/12/14 11:41:45;;;;;;;53.60;24.53;;;;;;;;;;5055234;28;20192;-47
2022/12/14 11:44:15;;;;;;;60.17;28.57;;;;;;;;;;5054904;28;20184;-46
2022/12/14 11:47:00;;;;;;;47.33;21.60;;;;;;;;;;5055373;28;20200;-48
2022/12/14 11:49:33;;;;;;;42.53;21.40;;;;;;;;;;5054704;28;20243;-45
2022/12/14 11:52:03;;;;;;;40.77;21.03;;;;;;;;;;5055325;28;20259;-45
2022/12/14 11:54:31;;;;;;;46.77;20.97;;;;;;;;;;5055682;28;20512;-45
2022/12/14 11:57:09;;;;;;;53.13;24.03;;;;;;;;;;5054956;28;20216;-45
2022/12/14 11:59:57;;;;;;;69.37;25.77;;;;;;;;;;5054302;28;20199;-46
2022/12/14 12:02:34;;;;;;;48.63;20.40;;;;;;;;;;5055457;28;20220;-45
2022/12/14 12:05:07;;;;;;;54.00;23.93;;;;;;;;;;5054892;28;20214;-45
2022/12/14 12:07:36;;;;;;;42.23;19.70;;;;;;;;;;5055194;28;20195;-45
2022/12/14 12:10:12;;;;;;;139.93;53.10;;;;;;;;;;5054032;28;20215;-45
2022/12/14 12:13:02;;;;;;;45.13;21.50;;;;;;;;;;5054967;28;20242;-45
2022/12/14 12:15:40;;;;;;;39.17;19.27;;;;;;;;;;5055008;28;20219;-44
2022/12/14 12:18:15;;;;;;;44.17;21.37;;;;;;;;;;5054971;28;20223;-45
2022/12/14 12:20:56;;;;;;;51.43;22.03;;;;;;;;;;5054744;28;20611;-45
2022/12/14 12:23:29;;;;;;;78.73;25.87;;;;;;;;;;5054323;28;20215;-45
2022/12/14 12:25:59;;;;;;;55.17;22.43;;;;;;;;;;5043600;28;20223;-44
2022/12/14 12:28:29;;;;;;;51.37;21.00;;;;;;;;;;5044431;28;20549;-44
2022/12/14 12:31:05;;;;;;;45.60;22.03;;;;;;;;;;5052687;28;20228;-44
2022/12/14 12:33:40;;;;;;;55.07;27.43;;;;;;;;;;5042392;28;20240;-46
2022/12/14 12:36:08;;;;;;;35.30;20.37;;;;;;;;;;5041247;28;20251;-45
2022/12/14 12:38:47;;;;;;;40.40;21.40;;;;;;;;;;5050517;28;20589;-47
2022/12/14 12:41:46;;;;;;;39.83;20.27;;;;;;;;;;5052093;28;20452;-44
2022/12/14 12:44:37;;;;;;;62.50;22.60;;;;;;;;;;5054156;28;20228;-45
2022/12/14 12:47:37;;;;;;;67.33;24.83;;;;;;;;;;5052724;28;20290;-45
2022/12/14 12:50:16;;;;;;;47.83;20.07;;;;;;;;;;5051654;28;20709;-45
2022/12/14 12:53:05;;;;;;;46.73;19.10;;;;;;;;;;5053885;28;20228;-44
2022/12/14 12:55:41;;;;;;;43.30;21.03;;;;;;;;;;5052697;28;20294;-47
2022/12/14 12:58:21;;;;;;;39.67;19.83;;;;;;;;;;5050808;28;20234;-45
2022/12/14 13:00:54;;;;;;;38.87;19.83;;;;;;;;;;5030977;28;20611;-45
2022/12/14 13:03:24;;;;;;;38.67;19.43;;;;;;;;;;5033135;28;20552;-41
2022/12/14 13:05:53;;;;;;;38.07;18.83;;;;;;;;;;5032874;28;20247;-41
2022/12/14 13:08:32;;;;;;;47.37;23.93;;;;;;;;;;5032962;28;20236;-42
2022/12/14 13:11:01;;;;;;;47.93;21.47;;;;;;;;;;5036896;28;20298;-44
2022/12/14 13:13:51;;;;;;;48.17;20.87;;;;;;;;;;5038599;28;20277;-44
2022/12/14 13:16:22;;;;;;;39.53;19.00;;;;;;;;;;5054062;28;20305;-44
2022/12/14 13:18:59;;;;;;;42.40;18.80;;;;;;;;;;5052834;28;20231;-47
2022/12/14 13:21:49;;;;;;;43.97;20.60;;;;;;;;;;5056760;28;20326;-44
2022/12/14 13:24:19;;;;;;;36.93;17.83;;;;;;;;;;5057118;28;20247;-46
2022/12/14 13:27:08;;;;;;;34.43;17.47;;;;;;;;;;5057006;28;20306;-45
2022/12/14 13:30:14;;;;;;;36.40;17.20;;;;;;;;;;5042908;28;20229;-45
2022/12/14 13:33:03;;;;;;;42.47;19.27;;;;;;;;;;5037321;28;20255;-46
2022/12/14 13:35:42;;;;;;;48.70;18.57;;;;;;;;;;5056882;28;20243;-49
2022/12/14 13:38:31;;;;;;;326.17;109.03;;;;;;;;;;5057126;28;20235;-45
2022/12/14 13:41:12;;;;;;;388.40;125.60;;;;;;;;;;5040383;28;20306;-45
2022/12/14 13:44:00;;;;;;;277.27;94.37;;;;;;;;;;5054851;28;20216;-45
2022/12/14 13:46:28;;;;;;;325.17;111.57;;;;;;;;;;5036968;28;20228;-51
2022/12/14 13:49:07;;;;;;;225.33;75.30;;;;;;;;;;5041484;28;20232;-45
2022/12/14 13:51:39;;;;;;;108.57;37.17;;;;;;;;;;5056027;28;20682;-46
2022/12/14 13:54:20;;;;;;;132.43;44.00;;;;;;;;;;5049466;28;20220;-44
2022/12/14 13:56:48;;;;;;;143.13;43.83;;;;;;;;;;5019352;28;20232;-45
2022/12/14 13:59:20;;;;;;;187.57;52.40;;;;;;;;;;5036939;28;20252;-46
2022/12/14 14:01:47;;;;;;;149.13;43.53;;;;;;;;;;5036530;28;20228;-45
2022/12/14 14:04:19;;;;;;;184.37;48.60;;;;;;;;;;5041036;28;20285;-46
2022/12/14 14:06:48;;;;;;;230.97;60.53;;;;;;;;;;5056533;28;20555;-46
2022/12/14 14:09:24;;;;;;;126.23;38.63;;;;;;;;;;5055152;28;20259;-47
2022/12/14 14:12:03;;;;;;;140.73;39.70;;;;;;;;;;5056185;28;20238;-46
2022/12/14 14:14:52;;;;;;;235.23;59.43;;;;;;;;;;5052471;28;20223;-47
2022/12/14 14:17:27;;;;;;;160.13;42.90;;;;;;;;;;5036460;28;20243;-48
2022/12/14 14:19:56;;;;;;;144.00;43.03;;;;;;;;;;5047674;28;20255;-44
2022/12/14 14:22:26;;;;;;;167.83;46.87;;;;;;;;;;5055464;28;20224;-46
2022/12/14 14:25:03;;;;;;;269.23;62.60;;;;;;;;;;5055361;28;20293;-45
2022/12/14 14:27:47;;;;;;;112.07;34.13;;;;;;;;;;5055750;28;20254;-47
2022/12/14 14:30:28;;;;;;;100.27;32.13;;;;;;;;;;5055859;28;20661;-46
2022/12/14 14:32:56;;;;;;;85.10;26.10;;;;;;;;;;5056268;28;20232;-45
2022/12/14 14:35:43;;;;;;;44.93;18.77;;;;;;;;;;5054682;28;20239;-47
2022/12/14 14:38:27;;;;;;;31.37;15.10;;;;;;;;;;5056383;28;20219;-46
2022/12/14 14:40:58;;;;;;;36.80;17.80;;;;;;;;;;5054999;28;20219;-47
2022/12/14 14:43:49;;;;;;;50.03;20.83;;;;;;;;;;5055971;28;20231;-46
2022/12/14 14:46:17;;;;;;;68.47;24.67;;;;;;;;;;5055093;28;20235;-46
2022/12/14 14:48:52;;;;;;;49.23;19.43;;;;;;;;;;5036754;28;20243;-45
2022/12/14 14:51:25;;;;;;;45.90;18.57;;;;;;;;;;5055801;28;20232;-46
2022/12/14 14:54:14;;;;;;;54.67;20.97;;;;;;;;;;5054636;28;20212;-46
2022/12/14 14:57:02;;;;;;;50.53;24.27;;;;;;;;;;5053014;28;20229;-48
2022/12/14 14:59:41;;;;;;;33.47;18.00;;;;;;;;;;5041552;28;20231;-46
2022/12/14 15:02:28;;;;;;;33.40;16.57;;;;;;;;;;5043529;28;20307;-45
2022/12/14 15:04:56;;;;;;;40.10;19.57;;;;;;;;;;5043089;28;20232;-46
2022/12/14 15:07:43;;;;;;;46.33;19.47;;;;;;;;;;5054686;28;20282;-47
2022/12/14 15:10:32;;;;;;;45.80;18.47;;;;;;;;;;5054283;28;20216;-47